createdAt,value
2019-01-20T07:21:14.885Z,100269.65
2019-01-20T07:26:18.662Z,100270.08
2019-01-20T07:31:22.396Z,100279.50
2019-01-20T07:36:26.122Z,100279.75
2019-01-20T07:41:30.532Z,100276.59
2019-01-20T07:46:34.264Z,100283.11
2019-01-20T07:51:38.003Z,100287.22
2019-01-20T07:56:41.727Z,100292.10
2019-01-20T08:01:45.540Z,100295.15
2019-01-20T08:06:49.367Z,100298.23
2019-01-20T08:11:53.444Z,100298.27
2019-01-20T08:16:57.297Z,100304.01
2019-01-20T08:22:01.144Z,100309.44
2019-01-20T08:28:02.231Z,100314.31
2019-01-20T08:33:06.000Z,100321.16
2019-01-20T08:38:09.901Z,100321.42
2019-01-20T08:43:13.658Z,100321.42
2019-01-20T08:48:19.672Z,100332.75
2019-01-20T08:53:23.440Z,100337.39
2019-01-20T08:58:27.438Z,100349.67
2019-01-20T09:03:31.534Z,100346.06
2019-01-20T09:08:35.663Z,100347.80
2019-01-20T09:13:41.619Z,100350.09
2019-01-20T09:18:46.014Z,100365.92
2019-01-20T09:23:50.175Z,100361.92
2019-01-20T09:28:53.908Z,100363.94
2019-01-20T09:34:00.769Z,100368.50
2019-01-20T09:39:09.347Z,100367.11
2019-01-20T09:44:14.442Z,100369.97
2019-01-20T09:49:18.733Z,100371.18
2019-01-20T09:54:22.827Z,100378.43
2019-01-20T09:59:26.687Z,100375.83
2019-01-20T10:04:35.200Z,100375.28
2019-01-20T10:09:54.593Z,100373.33
2019-01-20T10:14:58.751Z,100375.19
2019-01-20T10:20:04.102Z,100378.98
2019-01-20T10:25:14.930Z,100385.14
2019-01-20T10:30:19.858Z,100387.42
2019-01-20T10:35:27.305Z,100386.13
2019-01-20T10:40:32.305Z,100381.40
2019-01-20T10:45:36.440Z,100388.93
2019-01-20T10:50:40.363Z,100389.17
2019-01-20T10:55:44.178Z,100388.02
2019-01-20T11:00:48.004Z,100390.19
2019-01-20T11:05:51.881Z,100393.70
2019-01-20T11:10:55.714Z,100396.86
2019-01-20T11:15:59.645Z,100401.25
2019-01-20T11:21:03.508Z,100405.30
2019-01-20T11:26:07.441Z,100403.26
2019-01-20T11:31:11.258Z,100398.18
2019-01-20T11:36:15.086Z,100405.45
2019-01-20T11:41:18.968Z,100405.27
2019-01-20T11:46:25.079Z,100404.13
2019-01-20T11:51:34.365Z,100397.69
2019-01-20T11:56:38.192Z,100393.84
2019-01-20T12:01:42.054Z,100393.66
2019-01-20T12:06:47.890Z,100388.80
2019-01-20T12:11:51.787Z,100389.41
2019-01-20T12:16:56.999Z,100384.98
2019-01-20T12:22:00.973Z,100380.74
2019-01-20T12:27:04.969Z,100377.52
2019-01-20T12:32:08.742Z,100374.71
2019-01-20T12:37:12.595Z,100374.83
2019-01-20T12:42:16.391Z,100373.03
2019-01-20T12:47:20.140Z,100377.58
2019-01-20T12:52:23.924Z,100372.23
2019-01-20T12:57:31.707Z,100376.03
2019-01-20T13:02:35.738Z,100381.39
2019-01-20T13:07:39.549Z,100380.74
2019-01-20T13:12:43.548Z,100382.08
2019-01-20T13:18:06.455Z,100386.33
2019-01-20T13:23:22.637Z,100389.91
2019-01-20T13:28:26.712Z,100388.70
2019-01-20T13:33:30.517Z,100391.28
2019-01-20T13:38:34.314Z,100395.77
2019-01-20T13:43:38.227Z,100397.31
2019-01-20T13:48:41.962Z,100402.30
2019-01-20T13:53:45.782Z,100398.91
2019-01-20T13:58:49.630Z,100400.47
2019-01-20T14:03:53.362Z,100403.84
2019-01-20T14:08:57.183Z,100410.32
2019-01-20T14:14:01.044Z,100420.61
2019-01-20T14:19:04.893Z,100418.70
2019-01-20T14:24:08.764Z,100422.92
2019-01-20T14:29:12.557Z,100429.50
2019-01-20T14:34:16.369Z,100429.12
2019-01-20T14:39:20.258Z,100430.14
2019-01-20T14:44:24.073Z,100428.86
2019-01-20T14:49:27.836Z,100432.97
2019-01-20T14:54:31.582Z,100432.98
2019-01-20T14:59:35.376Z,100439.16
2019-01-20T15:04:39.356Z,100439.11
2019-01-20T15:09:43.101Z,100453.42
2019-01-20T15:14:47.791Z,100449.27
2019-01-20T15:19:51.597Z,100452.09
2019-01-20T15:24:55.357Z,100454.05
2019-01-20T15:29:59.334Z,100458.10
2019-01-20T15:35:03.306Z,100464.47
2019-01-20T15:40:08.081Z,100463.42
2019-01-20T15:45:16.524Z,100475.06
2019-01-20T15:50:20.666Z,100482.41
2019-01-20T15:55:24.558Z,100493.02
2019-01-20T16:00:30.392Z,100483.45
2019-01-20T16:05:34.128Z,100494.97
2019-01-20T16:10:37.946Z,100501.44
2019-01-20T16:15:41.743Z,100502.55
2019-01-20T16:20:45.480Z,100513.91
2019-01-20T16:25:49.235Z,100513.80
2019-01-20T16:30:53.037Z,100521.52
2019-01-20T16:35:56.797Z,100529.08
2019-01-20T16:41:00.593Z,100537.12
2019-01-20T16:46:04.374Z,100542.86
2019-01-20T16:51:08.128Z,100544.20
2019-01-20T16:56:11.915Z,100543.61
2019-01-20T17:01:15.811Z,100546.91
2019-01-20T17:06:19.605Z,100554.38
2019-01-20T17:11:23.361Z,100550.13
2019-01-20T17:16:27.126Z,100555.34
2019-01-20T17:21:31.016Z,100559.00
2019-01-20T17:26:35.011Z,100554.59
2019-01-20T17:31:38.894Z,100564.64
2019-01-20T17:36:42.695Z,100562.97
2019-01-20T17:41:46.669Z,100576.20
2019-01-20T17:46:50.522Z,100576.41
2019-01-20T17:51:54.314Z,100576.88
2019-01-20T17:56:58.275Z,100580.06
2019-01-20T18:02:02.179Z,100589.91
2019-01-20T18:07:06.126Z,100590.97
2019-01-20T18:12:09.966Z,100592.34
2019-01-20T18:17:13.824Z,100602.28
2019-01-20T18:22:17.672Z,100605.34
2019-01-20T18:27:21.464Z,100610.80
2019-01-20T18:32:25.247Z,100620.83
2019-01-20T18:37:29.001Z,100630.06
2019-01-20T18:42:32.817Z,100630.53
2019-01-20T18:47:36.697Z,100634.64
2019-01-20T18:52:40.532Z,100635.69
2019-01-20T18:57:44.376Z,100639.85
2019-01-20T19:02:48.142Z,100636.73
2019-01-20T19:07:55.430Z,100641.87
2019-01-20T19:12:57.542Z,100642.00
2019-01-20T19:18:01.384Z,100649.53
2019-01-20T19:23:05.646Z,100658.47
2019-01-20T19:28:09.509Z,100667.37
2019-01-20T19:33:13.402Z,100672.92
2019-01-20T19:38:17.204Z,100671.84
2019-01-20T19:43:21.030Z,100676.19
2019-01-20T19:48:24.849Z,100682.50
2019-01-20T19:53:28.686Z,100684.27
2019-01-20T19:58:32.422Z,100682.62
2019-01-20T20:03:36.187Z,100685.45
2019-01-20T20:08:39.959Z,100693.44
2019-01-20T20:13:43.780Z,100697.50
2019-01-20T20:18:47.527Z,100707.31
2019-01-20T20:23:51.309Z,100712.77
2019-01-20T20:28:55.144Z,100716.39
2019-01-20T20:33:58.918Z,100720.49
2019-01-20T20:39:02.653Z,100733.64
2019-01-20T20:44:06.502Z,100727.69
2019-01-20T20:49:10.313Z,100741.41
2019-01-20T20:54:14.207Z,100742.97
2019-01-20T20:59:18.037Z,100747.45
2019-01-20T21:04:21.981Z,100753.88
2019-01-20T21:09:27.565Z,100753.92
2019-01-20T21:14:31.428Z,100753.06
2019-01-20T21:19:35.172Z,100760.86
2019-01-20T21:24:39.197Z,100752.80
2019-01-20T21:29:42.961Z,100760.82
2019-01-20T21:34:46.818Z,100758.70
2019-01-20T21:39:50.604Z,100762.06
2019-01-20T21:44:54.377Z,100770.67
2019-01-20T21:49:58.313Z,100769.77
2019-01-20T21:55:02.186Z,100776.83
2019-01-20T22:00:07.482Z,100785.69
2019-01-20T22:05:11.703Z,100788.94
2019-01-20T22:10:20.360Z,100788.98
2019-01-20T22:15:24.208Z,100792.61
2019-01-20T22:20:28.035Z,100801.20
2019-01-20T22:25:31.780Z,100803.19
2019-01-20T22:30:35.594Z,100799.83
2019-01-20T22:35:39.364Z,100807.66
2019-01-20T22:40:43.165Z,100814.30
2019-01-20T22:45:47.005Z,100808.66
2019-01-20T22:50:50.794Z,100810.41
2019-01-20T22:55:54.558Z,100825.61
2019-01-20T23:01:03.220Z,100822.81
2019-01-20T23:06:07.234Z,100825.09
2019-01-20T23:11:11.045Z,100824.87
2019-01-20T23:16:14.938Z,100821.73
2019-01-20T23:21:18.725Z,100828.50
2019-01-20T23:26:22.434Z,100825.86
2019-01-20T23:31:26.193Z,100831.81
2019-01-20T23:36:29.991Z,100826.20
2019-01-20T23:41:33.777Z,100823.06
2019-01-20T23:46:37.531Z,100835.00
2019-01-20T23:51:41.301Z,100835.72
2019-01-20T23:56:45.151Z,100838.39
